Saint Louis, MO

11:51 AM CST on December 06, 2016 (GMT -0600)
APRSWXNET | | Change Station

Elev 615 ft 38.73 °N, 90.35 °W | Updated 23 minutes ago

Overcast
Overcast
39 °F
Feels Like 39 °F
N
3
Wind Variable Wind from NW
Gusts 0.0 mph

Today
High -- | Low -- °F
--% Chance of Precip.
Yesterday
High -- | Low -- °F
Precip. -- in
Pressure 29.92 in
Visibility 9.0 miles
Clouds Overcast 1100 ft
Windchill 39 °F
Dew Point 33 °F
Humidity 78%
Rainfall in
Snow Depth Not available.
7:05 AM 4:39 PM
Waxing Crescent, 43% visible
SPECI KSTL 061730Z 30009G19KT 9SM OVC011 05/01 A2992 RMK AO2 T00500006
Pressure 29.92 in
Visibility 9.0 miles
Clouds Overcast 1100 ft
Windchill 39 °F
Dew Point 33 °F
Humidity 78%
Rainfall in
Snow Depth Not available.
7:05 AM 4:39 PM
Waxing Crescent, 43% visible
SPECI KSTL 061730Z 30009G19KT 9SM OVC011 05/01 A2992 RMK AO2 T00500006

10-Day Weather Forecast

Almanac

Astronomy

Dec. 06, 2016 Rise Set
Actual Time
Civil Twilight
Nautical Twilight
Astronomical Twilight
Moon
Length of Visible Light
Length of Day
Tomorrow will be .
, % of the Moon is Illuminated

Today's Extremes

State Highs State Lows

Community

WunderPhotos

Upload Photos

1,955,986 photos uploaded!

WunderBlog® & News

Nearby

Air Quality

  Air Quality AQ Index Pollutant
Not available.

Snow Depth

Station Depth Elevation

Earthquake Activity

City Distance Mag. Time & Date
Minimum magnitude displayed is 2.5.

Coastal Water Temperatures

Place Temperature

Stations

Nearby Weather Stations

Station Location Temp. Windchill Dew Point Humidity Wind Precip. Elev Updated Type
                   

Watches & Warnings

There are currently no watches in effect.